sensor_id;sensor_type;location;lat;lon;timestamp;temperature;humidity
68350;DHT22;55268;-34.538;-58.598;2022-07-22T00:02:09;12.80;66.00
68350;DHT22;55268;-34.538;-58.598;2022-07-22T00:04:36;12.80;66.00
68350;DHT22;55268;-34.538;-58.598;2022-07-22T00:07:04;12.80;66.10
68350;DHT22;55268;-34.538;-58.598;2022-07-22T00:09:31;12.80;66.30
68350;DHT22;55268;-34.538;-58.598;2022-07-22T00:11:58;12.80;66.20
68350;DHT22;55268;-34.538;-58.598;2022-07-22T00:14:25;12.70;66.50
68350;DHT22;55268;-34.538;-58.598;2022-07-22T00:16:52;12.60;67.10
68350;DHT22;55268;-34.538;-58.598;2022-07-22T00:19:19;12.60;67.40
68350;DHT22;55268;-34.538;-58.598;2022-07-22T00:21:46;12.50;67.40
68350;DHT22;55268;-34.538;-58.598;2022-07-22T00:24:13;12.50;67.70
68350;DHT22;55268;-34.538;-58.598;2022-07-22T00:26:40;12.40;68.00
68350;DHT22;55268;-34.538;-58.598;2022-07-22T00:29:07;12.40;68.30
68350;DHT22;55268;-34.538;-58.598;2022-07-22T00:31:34;12.30;68.50
68350;DHT22;55268;-34.538;-58.598;2022-07-22T00:34:09;12.30;68.90
68350;DHT22;55268;-34.538;-58.598;2022-07-22T00:36:36;12.30;69.30
68350;DHT22;55268;-34.538;-58.598;2022-07-22T00:39:10;12.30;69.50
68350;DHT22;55268;-34.538;-58.598;2022-07-22T00:41:37;12.20;69.90
68350;DHT22;55268;-34.538;-58.598;2022-07-22T00:44:07;12.20;70.10
68350;DHT22;55268;-34.538;-58.598;2022-07-22T00:46:35;12.10;70.40
68350;DHT22;55268;-34.538;-58.598;2022-07-22T00:49:05;12.10;70.60
68350;DHT22;55268;-34.538;-58.598;2022-07-22T00:51:32;12.20;70.40
68350;DHT22;55268;-34.538;-58.598;2022-07-22T00:54:00;12.20;70.50
68350;DHT22;55268;-34.538;-58.598;2022-07-22T00:56:28;12.20;71.00
68350;DHT22;55268;-34.538;-58.598;2022-07-22T00:58:56;12.10;71.20
68350;DHT22;55268;-34.538;-58.598;2022-07-22T01:01:24;12.10;71.20
68350;DHT22;55268;-34.538;-58.598;2022-07-22T01:03:51;12.10;71.70
68350;DHT22;55268;-34.538;-58.598;2022-07-22T01:06:18;12.10;72.10
68350;DHT22;55268;-34.538;-58.598;2022-07-22T01:08:45;12.00;72.20
68350;DHT22;55268;-34.538;-58.598;2022-07-22T01:11:15;12.00;72.50
68350;DHT22;55268;-34.538;-58.598;2022-07-22T01:13:44;12.00;72.60
68350;DHT22;55268;-34.538;-58.598;2022-07-22T01:16:13;12.00;72.90
68350;DHT22;55268;-34.538;-58.598;2022-07-22T01:18:41;12.00;73.30
68350;DHT22;55268;-34.538;-58.598;2022-07-22T01:21:09;11.90;73.60
68350;DHT22;55268;-34.538;-58.598;2022-07-22T01:23:36;11.90;73.80
68350;DHT22;55268;-34.538;-58.598;2022-07-22T01:26:04;11.90;74.00
68350;DHT22;55268;-34.538;-58.598;2022-07-22T01:28:32;11.80;74.40
68350;DHT22;55268;-34.538;-58.598;2022-07-22T01:30:59;11.90;74.50
68350;DHT22;55268;-34.538;-58.598;2022-07-22T01:33:26;11.80;74.60
68350;DHT22;55268;-34.538;-58.598;2022-07-22T01:35:53;11.90;74.60
68350;DHT22;55268;-34.538;-58.598;2022-07-22T01:38:20;11.80;74.90
68350;DHT22;55268;-34.538;-58.598;2022-07-22T01:40:47;11.80;75.00
68350;DHT22;55268;-34.538;-58.598;2022-07-22T01:43:15;11.90;75.10
68350;DHT22;55268;-34.538;-58.598;2022-07-22T01:45:45;11.90;74.90
68350;DHT22;55268;-34.538;-58.598;2022-07-22T01:48:12;11.90;74.90
68350;DHT22;55268;-34.538;-58.598;2022-07-22T01:50:41;11.90;75.00
68350;DHT22;55268;-34.538;-58.598;2022-07-22T01:53:09;11.90;74.90
68350;DHT22;55268;-34.538;-58.598;2022-07-22T01:55:36;11.90;75.10
68350;DHT22;55268;-34.538;-58.598;2022-07-22T01:58:04;11.90;75.30
68350;DHT22;55268;-34.538;-58.598;2022-07-22T02:00:33;11.90;75.40
68350;DHT22;55268;-34.538;-58.598;2022-07-22T02:03:00;11.90;75.50
68350;DHT22;55268;-34.538;-58.598;2022-07-22T02:05:28;11.90;75.80
68350;DHT22;55268;-34.538;-58.598;2022-07-22T02:08:01;11.90;76.00
68350;DHT22;55268;-34.538;-58.598;2022-07-22T02:10:29;11.90;76.20
68350;DHT22;55268;-34.538;-58.598;2022-07-22T02:12:57;11.80;76.40
68350;DHT22;55268;-34.538;-58.598;2022-07-22T02:15:26;11.80;76.60
68350;DHT22;55268;-34.538;-58.598;2022-07-22T02:17:54;11.70;76.90
68350;DHT22;55268;-34.538;-58.598;2022-07-22T02:20:22;11.70;77.00
68350;DHT22;55268;-34.538;-58.598;2022-07-22T02:22:49;11.70;77.10
68350;DHT22;55268;-34.538;-58.598;2022-07-22T02:25:16;11.80;76.90
68350;DHT22;55268;-34.538;-58.598;2022-07-22T02:27:43;11.80;76.70
68350;DHT22;55268;-34.538;-58.598;2022-07-22T02:30:10;11.80;76.50
68350;DHT22;55268;-34.538;-58.598;2022-07-22T02:32:37;11.90;76.20
68350;DHT22;55268;-34.538;-58.598;2022-07-22T02:35:05;11.90;76.00
68350;DHT22;55268;-34.538;-58.598;2022-07-22T02:37:32;11.90;76.00
68350;DHT22;55268;-34.538;-58.598;2022-07-22T02:39:59;11.90;75.70
68350;DHT22;55268;-34.538;-58.598;2022-07-22T02:42:26;11.90;76.00
68350;DHT22;55268;-34.538;-58.598;2022-07-22T02:44:53;12.00;75.80
68350;DHT22;55268;-34.538;-58.598;2022-07-22T02:47:20;11.90;75.80
68350;DHT22;55268;-34.538;-58.598;2022-07-22T02:49:47;11.90;75.80
68350;DHT22;55268;-34.538;-58.598;2022-07-22T02:52:14;11.90;76.00
68350;DHT22;55268;-34.538;-58.598;2022-07-22T02:54:41;11.90;75.70
68350;DHT22;55268;-34.538;-58.598;2022-07-22T02:57:08;12.00;75.60
68350;DHT22;55268;-34.538;-58.598;2022-07-22T02:59:34;12.00;75.30
68350;DHT22;55268;-34.538;-58.598;2022-07-22T03:02:01;12.00;75.20
68350;DHT22;55268;-34.538;-58.598;2022-07-22T03:04:28;11.90;75.30
68350;DHT22;55268;-34.538;-58.598;2022-07-22T03:06:55;11.90;75.30
68350;DHT22;55268;-34.538;-58.598;2022-07-22T03:09:22;11.90;75.30
68350;DHT22;55268;-34.538;-58.598;2022-07-22T03:11:49;11.90;75.30
68350;DHT22;55268;-34.538;-58.598;2022-07-22T03:14:16;11.90;75.40
68350;DHT22;55268;-34.538;-58.598;2022-07-22T03:16:45;11.80;75.30
68350;DHT22;55268;-34.538;-58.598;2022-07-22T03:19:12;11.80;75.20
68350;DHT22;55268;-34.538;-58.598;2022-07-22T03:21:38;11.80;75.50
68350;DHT22;55268;-34.538;-58.598;2022-07-22T03:24:06;11.70;75.60
68350;DHT22;55268;-34.538;-58.598;2022-07-22T03:26:32;11.80;75.20
68350;DHT22;55268;-34.538;-58.598;2022-07-22T03:28:59;11.80;75.20
68350;DHT22;55268;-34.538;-58.598;2022-07-22T03:31:26;11.80;75.30
68350;DHT22;55268;-34.538;-58.598;2022-07-22T03:33:53;11.80;75.30
68350;DHT22;55268;-34.538;-58.598;2022-07-22T03:36:20;11.70;75.20
68350;DHT22;55268;-34.538;-58.598;2022-07-22T03:38:47;11.70;75.50
68350;DHT22;55268;-34.538;-58.598;2022-07-22T03:41:14;11.60;75.90
68350;DHT22;55268;-34.538;-58.598;2022-07-22T03:43:41;11.60;76.00
68350;DHT22;55268;-34.538;-58.598;2022-07-22T03:46:08;11.60;76.00
68350;DHT22;55268;-34.538;-58.598;2022-07-22T03:48:35;11.60;76.00
68350;DHT22;55268;-34.538;-58.598;2022-07-22T03:51:02;11.60;75.90
68350;DHT22;55268;-34.538;-58.598;2022-07-22T03:53:28;11.70;75.60
68350;DHT22;55268;-34.538;-58.598;2022-07-22T03:55:55;11.70;75.50
68350;DHT22;55268;-34.538;-58.598;2022-07-22T03:58:22;11.70;75.20
68350;DHT22;55268;-34.538;-58.598;2022-07-22T04:00:49;11.70;75.10
68350;DHT22;55268;-34.538;-58.598;2022-07-22T04:03:16;11.70;75.20
68350;DHT22;55268;-34.538;-58.598;2022-07-22T04:05:43;11.70;75.20
68350;DHT22;55268;-34.538;-58.598;2022-07-22T04:08:10;11.60;75.30
68350;DHT22;55268;-34.538;-58.598;2022-07-22T04:10:37;11.60;75.40
68350;DHT22;55268;-34.538;-58.598;2022-07-22T04:13:04;11.60;75.60
68350;DHT22;55268;-34.538;-58.598;2022-07-22T04:15:31;11.60;75.50
68350;DHT22;55268;-34.538;-58.598;2022-07-22T04:17:57;11.50;75.60
68350;DHT22;55268;-34.538;-58.598;2022-07-22T04:20:24;11.50;75.70
68350;DHT22;55268;-34.538;-58.598;2022-07-22T04:22:51;11.50;75.80
68350;DHT22;55268;-34.538;-58.598;2022-07-22T04:25:18;11.50;75.90
68350;DHT22;55268;-34.538;-58.598;2022-07-22T04:27:45;11.40;75.90
68350;DHT22;55268;-34.538;-58.598;2022-07-22T04:30:12;11.50;76.00
68350;DHT22;55268;-34.538;-58.598;2022-07-22T04:32:39;11.40;76.10
68350;DHT22;55268;-34.538;-58.598;2022-07-22T04:35:06;11.40;76.20
68350;DHT22;55268;-34.538;-58.598;2022-07-22T04:37:33;11.30;76.30
68350;DHT22;55268;-34.538;-58.598;2022-07-22T04:40:00;11.30;76.50
68350;DHT22;55268;-34.538;-58.598;2022-07-22T04:42:27;11.30;76.20
68350;DHT22;55268;-34.538;-58.598;2022-07-22T04:44:54;11.30;76.40
68350;DHT22;55268;-34.538;-58.598;2022-07-22T04:47:20;11.30;76.50
68350;DHT22;55268;-34.538;-58.598;2022-07-22T04:49:47;11.40;76.40
68350;DHT22;55268;-34.538;-58.598;2022-07-22T04:52:14;11.40;76.10
68350;DHT22;55268;-34.538;-58.598;2022-07-22T04:54:41;11.40;75.90
68350;DHT22;55268;-34.538;-58.598;2022-07-22T04:57:08;11.30;76.00
68350;DHT22;55268;-34.538;-58.598;2022-07-22T04:59:35;11.30;76.30
68350;DHT22;55268;-34.538;-58.598;2022-07-22T05:02:02;11.30;76.20
68350;DHT22;55268;-34.538;-58.598;2022-07-22T05:04:29;11.40;76.10
68350;DHT22;55268;-34.538;-58.598;2022-07-22T05:06:56;11.40;75.90
68350;DHT22;55268;-34.538;-58.598;2022-07-22T05:09:23;11.40;75.90
68350;DHT22;55268;-34.538;-58.598;2022-07-22T05:11:50;11.40;75.90
68350;DHT22;55268;-34.538;-58.598;2022-07-22T05:14:17;11.30;75.20
68350;DHT22;55268;-34.538;-58.598;2022-07-22T05:16:44;11.30;75.50
68350;DHT22;55268;-34.538;-58.598;2022-07-22T05:19:10;11.30;75.20
68350;DHT22;55268;-34.538;-58.598;2022-07-22T05:21:37;11.20;75.10
68350;DHT22;55268;-34.538;-58.598;2022-07-22T05:24:05;11.10;74.90
68350;DHT22;55268;-34.538;-58.598;2022-07-22T05:26:32;11.10;74.90
68350;DHT22;55268;-34.538;-58.598;2022-07-22T05:28:59;11.00;75.40
68350;DHT22;55268;-34.538;-58.598;2022-07-22T05:31:26;11.00;75.50
68350;DHT22;55268;-34.538;-58.598;2022-07-22T05:33:53;11.00;76.10
68350;DHT22;55268;-34.538;-58.598;2022-07-22T05:36:20;10.90;76.50
68350;DHT22;55268;-34.538;-58.598;2022-07-22T05:38:47;10.80;75.60
68350;DHT22;55268;-34.538;-58.598;2022-07-22T05:41:14;10.80;75.70
68350;DHT22;55268;-34.538;-58.598;2022-07-22T05:43:41;10.80;75.80
68350;DHT22;55268;-34.538;-58.598;2022-07-22T05:46:08;10.80;75.60
68350;DHT22;55268;-34.538;-58.598;2022-07-22T05:48:35;10.80;76.00
68350;DHT22;55268;-34.538;-58.598;2022-07-22T05:51:02;10.70;76.10
68350;DHT22;55268;-34.538;-58.598;2022-07-22T05:53:29;10.70;76.60
68350;DHT22;55268;-34.538;-58.598;2022-07-22T05:55:56;10.70;76.10
68350;DHT22;55268;-34.538;-58.598;2022-07-22T05:58:23;10.70;75.70
68350;DHT22;55268;-34.538;-58.598;2022-07-22T06:00:49;10.70;75.60
68350;DHT22;55268;-34.538;-58.598;2022-07-22T06:03:16;10.70;75.40
68350;DHT22;55268;-34.538;-58.598;2022-07-22T06:05:43;10.70;75.30
68350;DHT22;55268;-34.538;-58.598;2022-07-22T06:08:10;10.70;75.00
68350;DHT22;55268;-34.538;-58.598;2022-07-22T06:10:37;10.60;74.80
68350;DHT22;55268;-34.538;-58.598;2022-07-22T06:13:04;10.50;74.90
68350;DHT22;55268;-34.538;-58.598;2022-07-22T06:15:31;10.40;75.40
68350;DHT22;55268;-34.538;-58.598;2022-07-22T06:17:58;10.40;76.20
68350;DHT22;55268;-34.538;-58.598;2022-07-22T06:20:25;10.40;76.50
68350;DHT22;55268;-34.538;-58.598;2022-07-22T06:22:51;10.40;76.10
68350;DHT22;55268;-34.538;-58.598;2022-07-22T06:25:18;10.30;75.90
68350;DHT22;55268;-34.538;-58.598;2022-07-22T06:27:45;10.30;76.60
68350;DHT22;55268;-34.538;-58.598;2022-07-22T06:30:12;10.30;76.90
68350;DHT22;55268;-34.538;-58.598;2022-07-22T06:32:39;10.30;76.80
68350;DHT22;55268;-34.538;-58.598;2022-07-22T06:35:13;10.30;76.50
68350;DHT22;55268;-34.538;-58.598;2022-07-22T06:37:39;10.20;75.80
68350;DHT22;55268;-34.538;-58.598;2022-07-22T06:40:14;10.10;74.70
68350;DHT22;55268;-34.538;-58.598;2022-07-22T06:42:41;10.00;74.60
68350;DHT22;55268;-34.538;-58.598;2022-07-22T06:45:08;9.90;75.60
68350;DHT22;55268;-34.538;-58.598;2022-07-22T06:47:35;9.90;75.90
68350;DHT22;55268;-34.538;-58.598;2022-07-22T06:50:07;9.90;76.20
68350;DHT22;55268;-34.538;-58.598;2022-07-22T06:52:34;9.90;76.00
68350;DHT22;55268;-34.538;-58.598;2022-07-22T06:55:01;9.90;75.50
68350;DHT22;55268;-34.538;-58.598;2022-07-22T06:57:27;9.70;74.40
68350;DHT22;55268;-34.538;-58.598;2022-07-22T06:59:54;9.70;74.70
68350;DHT22;55268;-34.538;-58.598;2022-07-22T07:02:21;9.70;74.80
68350;DHT22;55268;-34.538;-58.598;2022-07-22T07:04:48;9.60;74.20
68350;DHT22;55268;-34.538;-58.598;2022-07-22T07:07:15;9.50;74.80
68350;DHT22;55268;-34.538;-58.598;2022-07-22T07:09:42;9.50;75.40
68350;DHT22;55268;-34.538;-58.598;2022-07-22T07:12:09;9.40;74.90
68350;DHT22;55268;-34.538;-58.598;2022-07-22T07:14:35;9.30;75.60
68350;DHT22;55268;-34.538;-58.598;2022-07-22T07:17:02;9.30;75.60
68350;DHT22;55268;-34.538;-58.598;2022-07-22T07:19:29;9.30;75.50
68350;DHT22;55268;-34.538;-58.598;2022-07-22T07:21:56;9.40;75.50
68350;DHT22;55268;-34.538;-58.598;2022-07-22T07:24:23;9.40;75.50
68350;DHT22;55268;-34.538;-58.598;2022-07-22T07:26:50;9.40;75.20
68350;DHT22;55268;-34.538;-58.598;2022-07-22T07:29:16;9.40;75.00
68350;DHT22;55268;-34.538;-58.598;2022-07-22T07:31:43;9.30;75.00
68350;DHT22;55268;-34.538;-58.598;2022-07-22T07:34:10;9.30;75.20
68350;DHT22;55268;-34.538;-58.598;2022-07-22T07:36:37;9.20;76.00
68350;DHT22;55268;-34.538;-58.598;2022-07-22T07:39:04;9.20;76.30
68350;DHT22;55268;-34.538;-58.598;2022-07-22T07:41:31;9.10;77.00
68350;DHT22;55268;-34.538;-58.598;2022-07-22T07:43:58;9.20;77.30
68350;DHT22;55268;-34.538;-58.598;2022-07-22T07:46:25;9.20;77.40
68350;DHT22;55268;-34.538;-58.598;2022-07-22T07:48:52;9.10;76.80
68350;DHT22;55268;-34.538;-58.598;2022-07-22T07:51:19;9.10;76.50
68350;DHT22;55268;-34.538;-58.598;2022-07-22T07:53:46;9.10;76.60
68350;DHT22;55268;-34.538;-58.598;2022-07-22T07:56:13;9.10;76.50
68350;DHT22;55268;-34.538;-58.598;2022-07-22T07:58:39;9.00;76.50
68350;DHT22;55268;-34.538;-58.598;2022-07-22T08:01:06;9.00;76.60
68350;DHT22;55268;-34.538;-58.598;2022-07-22T08:03:34;8.90;76.80
68350;DHT22;55268;-34.538;-58.598;2022-07-22T08:06:00;8.90;77.80
68350;DHT22;55268;-34.538;-58.598;2022-07-22T08:08:28;8.80;78.00
68350;DHT22;55268;-34.538;-58.598;2022-07-22T08:10:55;8.80;78.10
68350;DHT22;55268;-34.538;-58.598;2022-07-22T08:13:22;8.80;77.30
68350;DHT22;55268;-34.538;-58.598;2022-07-22T08:15:49;8.80;77.40
68350;DHT22;55268;-34.538;-58.598;2022-07-22T08:18:16;8.80;78.10
68350;DHT22;55268;-34.538;-58.598;2022-07-22T08:20:43;8.90;77.20
68350;DHT22;55268;-34.538;-58.598;2022-07-22T08:23:10;8.90;77.10
68350;DHT22;55268;-34.538;-58.598;2022-07-22T08:25:37;8.90;77.10
68350;DHT22;55268;-34.538;-58.598;2022-07-22T08:28:04;8.90;76.70
68350;DHT22;55268;-34.538;-58.598;2022-07-22T08:30:31;8.90;76.40
68350;DHT22;55268;-34.538;-58.598;2022-07-22T08:32:58;8.90;76.30
68350;DHT22;55268;-34.538;-58.598;2022-07-22T08:35:25;8.90;75.90
68350;DHT22;55268;-34.538;-58.598;2022-07-22T08:37:52;8.90;75.90
68350;DHT22;55268;-34.538;-58.598;2022-07-22T08:40:19;8.90;75.80
68350;DHT22;55268;-34.538;-58.598;2022-07-22T08:42:48;8.80;75.40
68350;DHT22;55268;-34.538;-58.598;2022-07-22T08:45:16;8.80;75.30
68350;DHT22;55268;-34.538;-58.598;2022-07-22T08:47:45;8.70;74.90
68350;DHT22;55268;-34.538;-58.598;2022-07-22T08:50:13;8.70;74.80
68350;DHT22;55268;-34.538;-58.598;2022-07-22T08:52:40;8.60;74.80
68350;DHT22;55268;-34.538;-58.598;2022-07-22T08:55:08;8.60;74.90
68350;DHT22;55268;-34.538;-58.598;2022-07-22T08:57:35;8.50;76.60
68350;DHT22;55268;-34.538;-58.598;2022-07-22T09:00:10;8.40;77.30
68350;DHT22;55268;-34.538;-58.598;2022-07-22T09:02:39;8.40;77.60
68350;DHT22;55268;-34.538;-58.598;2022-07-22T09:05:09;8.50;77.80
68350;DHT22;55268;-34.538;-58.598;2022-07-22T09:07:39;8.50;77.70
68350;DHT22;55268;-34.538;-58.598;2022-07-22T09:10:13;8.50;77.90
68350;DHT22;55268;-34.538;-58.598;2022-07-22T09:12:59;8.60;78.10
68350;DHT22;55268;-34.538;-58.598;2022-07-22T09:15:31;8.60;78.10
68350;DHT22;55268;-34.538;-58.598;2022-07-22T09:17:59;8.60;78.00
68350;DHT22;55268;-34.538;-58.598;2022-07-22T09:20:27;8.70;77.50
68350;DHT22;55268;-34.538;-58.598;2022-07-22T09:22:54;8.70;77.30
68350;DHT22;55268;-34.538;-58.598;2022-07-22T09:30:39;8.70;77.80
68350;DHT22;55268;-34.538;-58.598;2022-07-22T09:33:07;8.70;78.00
68350;DHT22;55268;-34.538;-58.598;2022-07-22T09:35:35;8.60;77.70
68350;DHT22;55268;-34.538;-58.598;2022-07-22T09:38:04;8.60;77.70
68350;DHT22;55268;-34.538;-58.598;2022-07-22T09:40:34;8.60;78.30
68350;DHT22;55268;-34.538;-58.598;2022-07-22T09:43:07;8.60;78.80
68350;DHT22;55268;-34.538;-58.598;2022-07-22T09:45:46;8.60;79.10
68350;DHT22;55268;-34.538;-58.598;2022-07-22T09:48:14;8.50;79.20
68350;DHT22;55268;-34.538;-58.598;2022-07-22T09:50:41;8.50;79.20
68350;DHT22;55268;-34.538;-58.598;2022-07-22T09:53:08;8.50;79.50
68350;DHT22;55268;-34.538;-58.598;2022-07-22T09:55:35;8.60;79.80
68350;DHT22;55268;-34.538;-58.598;2022-07-22T09:58:05;8.60;79.50
68350;DHT22;55268;-34.538;-58.598;2022-07-22T10:00:34;8.60;79.40
68350;DHT22;55268;-34.538;-58.598;2022-07-22T10:03:04;8.70;80.20
68350;DHT22;55268;-34.538;-58.598;2022-07-22T10:05:35;8.80;79.50
68350;DHT22;55268;-34.538;-58.598;2022-07-22T10:08:04;8.80;79.50
68350;DHT22;55268;-34.538;-58.598;2022-07-22T10:10:33;8.70;79.20
68350;DHT22;55268;-34.538;-58.598;2022-07-22T10:13:02;8.70;79.10
68350;DHT22;55268;-34.538;-58.598;2022-07-22T10:15:31;8.90;79.90
68350;DHT22;55268;-34.538;-58.598;2022-07-22T10:18:00;9.00;79.70
68350;DHT22;55268;-34.538;-58.598;2022-07-22T10:20:28;9.00;79.50
68350;DHT22;55268;-34.538;-58.598;2022-07-22T10:23:00;9.00;79.60
68350;DHT22;55268;-34.538;-58.598;2022-07-22T10:25:29;9.00;79.70
68350;DHT22;55268;-34.538;-58.598;2022-07-22T10:28:05;9.00;79.90
68350;DHT22;55268;-34.538;-58.598;2022-07-22T10:30:36;9.00;79.40
68350;DHT22;55268;-34.538;-58.598;2022-07-22T10:35:36;8.90;79.60
68350;DHT22;55268;-34.538;-58.598;2022-07-22T10:38:06;8.90;79.80
68350;DHT22;55268;-34.538;-58.598;2022-07-22T10:43:24;9.00;79.60
68350;DHT22;55268;-34.538;-58.598;2022-07-22T10:45:54;9.00;79.70
68350;DHT22;55268;-34.538;-58.598;2022-07-22T10:48:25;9.00;79.30
68350;DHT22;55268;-34.538;-58.598;2022-07-22T10:56:26;9.00;79.60
68350;DHT22;55268;-34.538;-58.598;2022-07-22T11:01:24;9.10;80.30
68350;DHT22;55268;-34.538;-58.598;2022-07-22T11:03:52;9.20;79.70
68350;DHT22;55268;-34.538;-58.598;2022-07-22T11:06:28;9.30;79.60
68350;DHT22;55268;-34.538;-58.598;2022-07-22T11:09:08;9.40;79.30
68350;DHT22;55268;-34.538;-58.598;2022-07-22T11:11:44;9.50;79.50
68350;DHT22;55268;-34.538;-58.598;2022-07-22T11:14:16;9.50;79.60
68350;DHT22;55268;-34.538;-58.598;2022-07-22T11:16:45;9.50;79.80
68350;DHT22;55268;-34.538;-58.598;2022-07-22T11:19:12;9.60;80.10
68350;DHT22;55268;-34.538;-58.598;2022-07-22T11:21:39;9.60;80.60
68350;DHT22;55268;-34.538;-58.598;2022-07-22T11:24:07;9.60;81.00
68350;DHT22;55268;-34.538;-58.598;2022-07-22T11:26:43;9.60;81.20
68350;DHT22;55268;-34.538;-58.598;2022-07-22T11:32:01;9.60;81.80
68350;DHT22;55268;-34.538;-58.598;2022-07-22T11:34:28;9.60;81.80
68350;DHT22;55268;-34.538;-58.598;2022-07-22T11:36:57;9.60;82.10
68350;DHT22;55268;-34.538;-58.598;2022-07-22T11:39:26;9.60;82.10
68350;DHT22;55268;-34.538;-58.598;2022-07-22T11:41:57;9.60;82.30
68350;DHT22;55268;-34.538;-58.598;2022-07-22T11:44:27;9.70;82.20
68350;DHT22;55268;-34.538;-58.598;2022-07-22T11:46:55;9.70;82.30
68350;DHT22;55268;-34.538;-58.598;2022-07-22T11:49:26;9.70;82.40
68350;DHT22;55268;-34.538;-58.598;2022-07-22T11:51:53;9.80;82.40
68350;DHT22;55268;-34.538;-58.598;2022-07-22T11:54:20;9.80;82.40
68350;DHT22;55268;-34.538;-58.598;2022-07-22T11:56:47;9.80;82.60
68350;DHT22;55268;-34.538;-58.598;2022-07-22T11:59:16;9.90;82.60
68350;DHT22;55268;-34.538;-58.598;2022-07-22T12:01:45;9.90;82.70
68350;DHT22;55268;-34.538;-58.598;2022-07-22T12:04:18;9.90;82.60
68350;DHT22;55268;-34.538;-58.598;2022-07-22T12:06:46;10.00;82.70
68350;DHT22;55268;-34.538;-58.598;2022-07-22T12:09:20;10.00;82.70
68350;DHT22;55268;-34.538;-58.598;2022-07-22T12:11:50;10.10;82.70
68350;DHT22;55268;-34.538;-58.598;2022-07-22T12:14:19;10.00;82.70
68350;DHT22;55268;-34.538;-58.598;2022-07-22T12:19:25;10.10;82.80
68350;DHT22;55268;-34.538;-58.598;2022-07-22T12:26:57;10.30;82.50
68350;DHT22;55268;-34.538;-58.598;2022-07-22T12:29:27;10.40;82.60
68350;DHT22;55268;-34.538;-58.598;2022-07-22T12:32:00;10.40;82.90
68350;DHT22;55268;-34.538;-58.598;2022-07-22T12:37:21;10.60;82.50
68350;DHT22;55268;-34.538;-58.598;2022-07-22T12:40:09;10.60;82.30
68350;DHT22;55268;-34.538;-58.598;2022-07-22T12:42:46;10.60;82.50
68350;DHT22;55268;-34.538;-58.598;2022-07-22T12:45:15;10.50;83.00
68350;DHT22;55268;-34.538;-58.598;2022-07-22T12:47:52;10.50;83.20
68350;DHT22;55268;-34.538;-58.598;2022-07-22T12:50:24;10.50;83.60
68350;DHT22;55268;-34.538;-58.598;2022-07-22T12:52:55;10.60;84.00
68350;DHT22;55268;-34.538;-58.598;2022-07-22T12:55:22;10.60;84.00
68350;DHT22;55268;-34.538;-58.598;2022-07-22T12:57:49;10.50;84.40
68350;DHT22;55268;-34.538;-58.598;2022-07-22T13:00:19;10.50;84.60
68350;DHT22;55268;-34.538;-58.598;2022-07-22T13:02:47;10.50;85.10
68350;DHT22;55268;-34.538;-58.598;2022-07-22T13:05:14;10.50;85.60
68350;DHT22;55268;-34.538;-58.598;2022-07-22T13:07:41;10.50;86.10
68350;DHT22;55268;-34.538;-58.598;2022-07-22T13:10:09;10.50;86.40
68350;DHT22;55268;-34.538;-58.598;2022-07-22T13:12:37;10.50;86.70
68350;DHT22;55268;-34.538;-58.598;2022-07-22T13:15:04;10.50;87.00
68350;DHT22;55268;-34.538;-58.598;2022-07-22T13:17:32;10.50;87.20
68350;DHT22;55268;-34.538;-58.598;2022-07-22T13:19:59;10.50;87.60
68350;DHT22;55268;-34.538;-58.598;2022-07-22T13:22:26;10.50;87.90
68350;DHT22;55268;-34.538;-58.598;2022-07-22T13:24:53;10.50;88.10
68350;DHT22;55268;-34.538;-58.598;2022-07-22T13:27:20;10.60;88.20
68350;DHT22;55268;-34.538;-58.598;2022-07-22T13:29:47;10.70;88.20
68350;DHT22;55268;-34.538;-58.598;2022-07-22T13:32:13;10.70;87.90
68350;DHT22;55268;-34.538;-58.598;2022-07-22T13:34:40;10.80;88.00
68350;DHT22;55268;-34.538;-58.598;2022-07-22T13:37:07;10.90;87.80
68350;DHT22;55268;-34.538;-58.598;2022-07-22T13:39:34;10.90;88.10
68350;DHT22;55268;-34.538;-58.598;2022-07-22T13:42:01;11.00;87.90
68350;DHT22;55268;-34.538;-58.598;2022-07-22T13:44:29;11.10;87.80
68350;DHT22;55268;-34.538;-58.598;2022-07-22T13:46:58;11.20;87.70
68350;DHT22;55268;-34.538;-58.598;2022-07-22T13:49:25;11.20;87.50
68350;DHT22;55268;-34.538;-58.598;2022-07-22T13:51:52;11.30;86.80
68350;DHT22;55268;-34.538;-58.598;2022-07-22T13:54:20;11.40;87.20
68350;DHT22;55268;-34.538;-58.598;2022-07-22T13:56:47;11.50;86.90
68350;DHT22;55268;-34.538;-58.598;2022-07-22T13:59:15;11.50;86.70
68350;DHT22;55268;-34.538;-58.598;2022-07-22T14:01:43;11.60;86.60
68350;DHT22;55268;-34.538;-58.598;2022-07-22T14:04:10;11.70;86.40
68350;DHT22;55268;-34.538;-58.598;2022-07-22T14:06:37;11.70;85.90
68350;DHT22;55268;-34.538;-58.598;2022-07-22T14:09:04;11.80;85.60
68350;DHT22;55268;-34.538;-58.598;2022-07-22T14:11:31;11.80;85.20
68350;DHT22;55268;-34.538;-58.598;2022-07-22T14:13:58;11.90;85.10
68350;DHT22;55268;-34.538;-58.598;2022-07-22T14:16:25;12.00;85.10
68350;DHT22;55268;-34.538;-58.598;2022-07-22T14:19:09;12.10;84.80
68350;DHT22;55268;-34.538;-58.598;2022-07-22T14:21:38;12.20;84.40
68350;DHT22;55268;-34.538;-58.598;2022-07-22T14:24:06;12.20;84.10
68350;DHT22;55268;-34.538;-58.598;2022-07-22T14:26:34;12.20;83.80
68350;DHT22;55268;-34.538;-58.598;2022-07-22T14:29:02;12.30;84.10
68350;DHT22;55268;-34.538;-58.598;2022-07-22T14:31:29;12.30;84.10
68350;DHT22;55268;-34.538;-58.598;2022-07-22T14:33:56;12.40;83.50
68350;DHT22;55268;-34.538;-58.598;2022-07-22T14:36:23;12.40;83.80
68350;DHT22;55268;-34.538;-58.598;2022-07-22T14:38:50;12.50;83.30
68350;DHT22;55268;-34.538;-58.598;2022-07-22T14:41:17;12.50;83.40
68350;DHT22;55268;-34.538;-58.598;2022-07-22T14:43:44;12.60;83.30
68350;DHT22;55268;-34.538;-58.598;2022-07-22T14:46:11;12.60;82.90
68350;DHT22;55268;-34.538;-58.598;2022-07-22T14:48:39;12.70;82.10
68350;DHT22;55268;-34.538;-58.598;2022-07-22T14:51:07;12.80;82.20
68350;DHT22;55268;-34.538;-58.598;2022-07-22T14:53:34;12.80;82.10
68350;DHT22;55268;-34.538;-58.598;2022-07-22T14:56:01;12.80;82.40
68350;DHT22;55268;-34.538;-58.598;2022-07-22T14:58:28;12.90;82.50
68350;DHT22;55268;-34.538;-58.598;2022-07-22T15:00:55;12.90;82.40
68350;DHT22;55268;-34.538;-58.598;2022-07-22T15:03:22;12.90;82.40
68350;DHT22;55268;-34.538;-58.598;2022-07-22T15:05:49;13.00;82.40
68350;DHT22;55268;-34.538;-58.598;2022-07-22T15:08:16;13.10;82.50
68350;DHT22;55268;-34.538;-58.598;2022-07-22T15:10:44;13.10;81.90
68350;DHT22;55268;-34.538;-58.598;2022-07-22T15:13:11;13.20;82.10
68350;DHT22;55268;-34.538;-58.598;2022-07-22T15:15:38;13.30;82.00
68350;DHT22;55268;-34.538;-58.598;2022-07-22T15:18:05;13.30;81.70
68350;DHT22;55268;-34.538;-58.598;2022-07-22T15:20:32;13.40;81.80
68350;DHT22;55268;-34.538;-58.598;2022-07-22T15:22:59;13.50;81.60
68350;DHT22;55268;-34.538;-58.598;2022-07-22T15:25:26;13.50;81.70
68350;DHT22;55268;-34.538;-58.598;2022-07-22T15:27:53;13.60;81.10
68350;DHT22;55268;-34.538;-58.598;2022-07-22T15:30:20;13.60;80.80